sensor_id;sensor_type;location;lat;lon;timestamp;pressure;altitude;pressure_sealevel;temperature;humidity
84924;BME280;75286;52.218;5.180;2024-03-22T00:02:09;102100.84;;;10.95;100.00
84924;BME280;75286;52.218;5.180;2024-03-22T00:04:36;102091.28;;;10.96;100.00
84924;BME280;75286;52.218;5.180;2024-03-22T00:07:02;102092.44;;;11.01;100.00
84924;BME280;75286;52.218;5.180;2024-03-22T00:09:32;102089.88;;;11.01;100.00
84924;BME280;75286;52.218;5.180;2024-03-22T00:11:57;102067.66;;;10.91;100.00
84924;BME280;75286;52.218;5.180;2024-03-22T00:14:23;102072.06;;;10.98;100.00
84924;BME280;75286;52.218;5.180;2024-03-22T00:16:51;102062.63;;;10.89;100.00
84924;BME280;75286;52.218;5.180;2024-03-22T00:19:17;102057.97;;;10.93;100.00
84924;BME280;75286;52.218;5.180;2024-03-22T00:21:42;102068.34;;;11.01;100.00
84924;BME280;75286;52.218;5.180;2024-03-22T00:24:11;102060.59;;;11.01;100.00
84924;BME280;75286;52.218;5.180;2024-03-22T00:26:36;102064.81;;;11.02;100.00
84924;BME280;75286;52.218;5.180;2024-03-22T00:29:05;102047.16;;;10.97;100.00
84924;BME280;75286;52.218;5.180;2024-03-22T00:31:30;102042.78;;;10.98;100.00
84924;BME280;75286;52.218;5.180;2024-03-22T00:33:56;102022.09;;;10.98;100.00
84924;BME280;75286;52.218;5.180;2024-03-22T00:36:23;102022.38;;;10.95;100.00
84924;BME280;75286;52.218;5.180;2024-03-22T00:38:48;102007.84;;;10.94;100.00
84924;BME280;75286;52.218;5.180;2024-03-22T00:41:19;102014.19;;;11.07;100.00
84924;BME280;75286;52.218;5.180;2024-03-22T00:43:47;102007.56;;;11.05;100.00
84924;BME280;75286;52.218;5.180;2024-03-22T00:46:12;102002.88;;;11.08;100.00
84924;BME280;75286;52.218;5.180;2024-03-22T00:48:38;101992.34;;;11.02;100.00
84924;BME280;75286;52.218;5.180;2024-03-22T00:51:04;102008.72;;;11.10;100.00
84924;BME280;75286;52.218;5.180;2024-03-22T00:53:30;102004.81;;;11.06;100.00
84924;BME280;75286;52.218;5.180;2024-03-22T00:55:55;101989.75;;;10.94;100.00
84924;BME280;75286;52.218;5.180;2024-03-22T00:58:21;102008.69;;;11.02;100.00
84924;BME280;75286;52.218;5.180;2024-03-22T01:00:47;101996.84;;;10.92;100.00
84924;BME280;75286;52.218;5.180;2024-03-22T01:03:13;101998.66;;;10.99;100.00
84924;BME280;75286;52.218;5.180;2024-03-22T01:05:38;101989.75;;;10.94;100.00
84924;BME280;75286;52.218;5.180;2024-03-22T01:08:06;101988.13;;;10.93;100.00
84924;BME280;75286;52.218;5.180;2024-03-22T01:10:33;102004.47;;;11.01;100.00
84924;BME280;75286;52.218;5.180;2024-03-22T01:12:58;102015.00;;;11.08;100.00
84924;BME280;75286;52.218;5.180;2024-03-22T01:15:24;101992.66;;;10.99;100.00
84924;BME280;75286;52.218;5.180;2024-03-22T01:17:49;101989.41;;;10.97;100.00
84924;BME280;75286;52.218;5.180;2024-03-22T01:20:14;102006.56;;;11.06;100.00
84924;BME280;75286;52.218;5.180;2024-03-22T01:22:40;101994.94;;;11.02;100.00
84924;BME280;75286;52.218;5.180;2024-03-22T01:25:06;101981.16;;;10.93;100.00
84924;BME280;75286;52.218;5.180;2024-03-22T01:27:32;101979.88;;;10.97;100.00
84924;BME280;75286;52.218;5.180;2024-03-22T01:29:59;101982.47;;;10.97;100.00
84924;BME280;75286;52.218;5.180;2024-03-22T01:32:27;101998.81;;;11.06;100.00
84924;BME280;75286;52.218;5.180;2024-03-22T01:34:53;101974.56;;;10.99;100.00
84924;BME280;75286;52.218;5.180;2024-03-22T01:37:18;101988.13;;;11.01;100.00
84924;BME280;75286;52.218;5.180;2024-03-22T01:39:46;101973.88;;;10.97;100.00
84924;BME280;75286;52.218;5.180;2024-03-22T01:42:11;101986.53;;;11.00;100.00
84924;BME280;75286;52.218;5.180;2024-03-22T01:44:41;101978.91;;;10.98;100.00
84924;BME280;75286;52.218;5.180;2024-03-22T01:47:06;101975.19;;;10.93;100.00
84924;BME280;75286;52.218;5.180;2024-03-22T01:49:32;101980.53;;;10.99;100.00
84924;BME280;75286;52.218;5.180;2024-03-22T01:52:00;101966.47;;;10.94;100.00
84924;BME280;75286;52.218;5.180;2024-03-22T01:54:26;101968.38;;;10.92;100.00
84924;BME280;75286;52.218;5.180;2024-03-22T01:56:52;101970.63;;;10.95;100.00
84924;BME280;75286;52.218;5.180;2024-03-22T01:59:17;101972.59;;;10.93;100.00
84924;BME280;75286;52.218;5.180;2024-03-22T02:01:43;101968.06;;;10.95;100.00
84924;BME280;75286;52.218;5.180;2024-03-22T02:04:09;101961.28;;;10.94;100.00
84924;BME280;75286;52.218;5.180;2024-03-22T02:06:35;101986.06;;;11.04;100.00
84924;BME280;75286;52.218;5.180;2024-03-22T02:09:00;101964.31;;;10.89;100.00
84924;BME280;75286;52.218;5.180;2024-03-22T02:11:26;101967.75;;;10.98;99.93
84924;BME280;75286;52.218;5.180;2024-03-22T02:13:52;101953.16;;;10.89;99.70
84924;BME280;75286;52.218;5.180;2024-03-22T02:16:18;101975.19;;;11.01;100.00
84924;BME280;75286;52.218;5.180;2024-03-22T02:18:46;101956.41;;;10.91;99.79
84924;BME280;75286;52.218;5.180;2024-03-22T02:21:12;101961.09;;;10.95;99.68
84924;BME280;75286;52.218;5.180;2024-03-22T02:23:39;101944.09;;;10.85;99.46
84924;BME280;75286;52.218;5.180;2024-03-22T02:26:06;101956.75;;;10.96;99.50
84924;BME280;75286;52.218;5.180;2024-03-22T02:28:34;101948.50;;;11.00;99.56
84924;BME280;75286;52.218;5.180;2024-03-22T02:31:01;101939.09;;;10.91;98.95
84924;BME280;75286;52.218;5.180;2024-03-22T02:33:26;101934.75;;;10.92;99.54
84924;BME280;75286;52.218;5.180;2024-03-22T02:35:52;101935.53;;;10.84;99.90
84924;BME280;75286;52.218;5.180;2024-03-22T02:38:17;101942.50;;;10.92;99.83
84924;BME280;75286;52.218;5.180;2024-03-22T02:40:43;101939.59;;;10.87;99.67
84924;BME280;75286;52.218;5.180;2024-03-22T02:43:09;101922.72;;;10.74;99.64
84924;BME280;75286;52.218;5.180;2024-03-22T02:45:35;101926.59;;;10.70;100.00
84924;BME280;75286;52.218;5.180;2024-03-22T02:48:00;101903.63;;;10.67;99.95
84924;BME280;75286;52.218;5.180;2024-03-22T02:50:26;101884.69;;;10.59;99.95
84924;BME280;75286;52.218;5.180;2024-03-22T02:52:51;101900.06;;;10.68;99.96
84924;BME280;75286;52.218;5.180;2024-03-22T02:55:17;101878.91;;;10.65;100.00
84924;BME280;75286;52.218;5.180;2024-03-22T02:57:43;101867.03;;;10.54;100.00
84924;BME280;75286;52.218;5.180;2024-03-22T03:00:12;101874.50;;;10.57;99.77
84924;BME280;75286;52.218;5.180;2024-03-22T03:02:37;101879.03;;;10.63;100.00
84924;BME280;75286;52.218;5.180;2024-03-22T03:05:03;101866.59;;;10.59;100.00
84924;BME280;75286;52.218;5.180;2024-03-22T03:07:29;101869.34;;;10.57;99.96
84924;BME280;75286;52.218;5.180;2024-03-22T03:10:00;101853.16;;;10.47;100.00
84924;BME280;75286;52.218;5.180;2024-03-22T03:12:26;101857.19;;;10.50;100.00
84924;BME280;75286;52.218;5.180;2024-03-22T03:14:51;101867.22;;;10.61;100.00
84924;BME280;75286;52.218;5.180;2024-03-22T03:17:20;101865.44;;;10.61;100.00
84924;BME280;75286;52.218;5.180;2024-03-22T03:19:48;101854.16;;;10.62;100.00
84924;BME280;75286;52.218;5.180;2024-03-22T03:22:24;101855.78;;;10.63;100.00
84924;BME280;75286;52.218;5.180;2024-03-22T03:24:52;101843.13;;;10.52;100.00
84924;BME280;75286;52.218;5.180;2024-03-22T03:27:30;101837.81;;;10.54;100.00
84924;BME280;75286;52.218;5.180;2024-03-22T03:29:59;101834.91;;;10.57;100.00
84924;BME280;75286;52.218;5.180;2024-03-22T03:32:24;101822.13;;;10.47;100.00
84924;BME280;75286;52.218;5.180;2024-03-22T03:34:50;101827.94;;;10.49;100.00
84924;BME280;75286;52.218;5.180;2024-03-22T03:37:16;101805.91;;;10.37;100.00
84924;BME280;75286;52.218;5.180;2024-03-22T03:39:41;101818.88;;;10.45;100.00
84924;BME280;75286;52.218;5.180;2024-03-22T03:42:07;101809.63;;;10.43;100.00
84924;BME280;75286;52.218;5.180;2024-03-22T03:44:32;101819.53;;;10.47;100.00
84924;BME280;75286;52.218;5.180;2024-03-22T03:47:00;101824.84;;;10.46;100.00
84924;BME280;75286;52.218;5.180;2024-03-22T03:49:25;101814.81;;;10.43;100.00
84924;BME280;75286;52.218;5.180;2024-03-22T03:51:51;101818.53;;;10.48;100.00
84924;BME280;75286;52.218;5.180;2024-03-22T03:54:16;101825.00;;;10.44;100.00
84924;BME280;75286;52.218;5.180;2024-03-22T03:56:48;101822.41;;;10.36;100.00
84924;BME280;75286;52.218;5.180;2024-03-22T03:59:13;101800.91;;;10.36;100.00
84924;BME280;75286;52.218;5.180;2024-03-22T04:01:39;101814.47;;;10.38;100.00
84924;BME280;75286;52.218;5.180;2024-03-22T04:04:06;101818.34;;;10.33;100.00
84924;BME280;75286;52.218;5.180;2024-03-22T04:06:34;101805.75;;;10.30;100.00
84924;BME280;75286;52.218;5.180;2024-03-22T04:08:59;101806.91;;;10.36;100.00
84924;BME280;75286;52.218;5.180;2024-03-22T04:11:25;101813.19;;;10.33;100.00
84924;BME280;75286;52.218;5.180;2024-03-22T04:13:51;101807.38;;;10.40;100.00
84924;BME280;75286;52.218;5.180;2024-03-22T04:16:16;101807.88;;;10.35;100.00
84924;BME280;75286;52.218;5.180;2024-03-22T04:18:42;101806.25;;;10.34;100.00
84924;BME280;75286;52.218;5.180;2024-03-22T04:21:10;101806.25;;;10.34;100.00
84924;BME280;75286;52.218;5.180;2024-03-22T04:23:36;101822.84;;;10.31;100.00
84924;BME280;75286;52.218;5.180;2024-03-22T04:26:02;101799.88;;;10.20;100.00
84924;BME280;75286;52.218;5.180;2024-03-22T04:28:28;101798.25;;;10.19;100.00
84924;BME280;75286;52.218;5.180;2024-03-22T04:31:02;101794.72;;;10.20;100.00
84924;BME280;75286;52.218;5.180;2024-03-22T04:33:28;101804.44;;;10.26;100.00
84924;BME280;75286;52.218;5.180;2024-03-22T04:35:57;101794.00;;;10.10;100.00
84924;BME280;75286;52.218;5.180;2024-03-22T04:38:24;101796.13;;;10.15;100.00
84924;BME280;75286;52.218;5.180;2024-03-22T04:40:49;101811.53;;;10.24;100.00
84924;BME280;75286;52.218;5.180;2024-03-22T04:43:15;101797.47;;;10.19;100.00
84924;BME280;75286;52.218;5.180;2024-03-22T04:45:42;101799.75;;;10.22;100.00
84924;BME280;75286;52.218;5.180;2024-03-22T04:48:08;101794.72;;;10.20;100.00
84924;BME280;75286;52.218;5.180;2024-03-22T04:50:34;101802.66;;;10.19;100.00
84924;BME280;75286;52.218;5.180;2024-03-22T04:52:59;101803.59;;;10.18;100.00
84924;BME280;75286;52.218;5.180;2024-03-22T04:55:24;101807.81;;;10.19;100.00
84924;BME280;75286;52.218;5.180;2024-03-22T04:57:51;101796.00;;;10.16;100.00
84924;BME280;75286;52.218;5.180;2024-03-22T05:00:18;101811.38;;;10.26;100.00
84924;BME280;75286;52.218;5.180;2024-03-22T05:02:43;101823.34;;;10.27;100.00
84924;BME280;75286;52.218;5.180;2024-03-22T05:05:09;101812.97;;;10.19;100.00
84924;BME280;75286;52.218;5.180;2024-03-22T05:07:35;101813.63;;;10.21;100.00
84924;BME280;75286;52.218;5.180;2024-03-22T05:10:00;101804.25;;;10.20;100.00
84924;BME280;75286;52.218;5.180;2024-03-22T05:12:26;101782.06;;;10.09;100.00
84924;BME280;75286;52.218;5.180;2024-03-22T05:14:51;101793.53;;;10.15;100.00
84924;BME280;75286;52.218;5.180;2024-03-22T05:17:16;101790.47;;;10.11;100.00
84924;BME280;75286;52.218;5.180;2024-03-22T05:19:42;101801.84;;;10.18;100.00
84924;BME280;75286;52.218;5.180;2024-03-22T05:22:07;101787.13;;;10.19;100.00
84924;BME280;75286;52.218;5.180;2024-03-22T05:24:34;101779.16;;;10.12;100.00
84924;BME280;75286;52.218;5.180;2024-03-22T05:26:59;101773.16;;;10.04;100.00
84924;BME280;75286;52.218;5.180;2024-03-22T05:29:25;101790.13;;;10.06;100.00
84924;BME280;75286;52.218;5.180;2024-03-22T05:31:50;101780.44;;;10.08;100.00
84924;BME280;75286;52.218;5.180;2024-03-22T05:34:18;101785.28;;;10.11;100.00
84924;BME280;75286;52.218;5.180;2024-03-22T05:36:45;101782.22;;;10.08;100.00
84924;BME280;75286;52.218;5.180;2024-03-22T05:39:10;101771.53;;;10.03;100.00
84924;BME280;75286;52.218;5.180;2024-03-22T05:41:36;101764.91;;;10.00;100.00
84924;BME280;75286;52.218;5.180;2024-03-22T05:44:02;101777.22;;;10.06;100.00
84924;BME280;75286;52.218;5.180;2024-03-22T05:46:28;101768.66;;;10.06;100.00
84924;BME280;75286;52.218;5.180;2024-03-22T05:48:54;101772.34;;;10.03;100.00
84924;BME280;75286;52.218;5.180;2024-03-22T05:51:19;101771.84;;;10.00;100.00
84924;BME280;75286;52.218;5.180;2024-03-22T05:53:45;101764.25;;;9.98;100.00
84924;BME280;75286;52.218;5.180;2024-03-22T05:56:10;101757.31;;;9.99;100.00
84924;BME280;75286;52.218;5.180;2024-03-22T05:58:36;101765.41;;;10.04;100.00
84924;BME280;75286;52.218;5.180;2024-03-22T06:01:02;101761.84;;;10.05;100.00
84924;BME280;75286;52.218;5.180;2024-03-22T06:03:28;101748.91;;;9.97;100.00
84924;BME280;75286;52.218;5.180;2024-03-22T06:05:54;101755.06;;;10.04;100.00
84924;BME280;75286;52.218;5.180;2024-03-22T06:08:21;101747.31;;;10.04;99.84
84924;BME280;75286;52.218;5.180;2024-03-22T06:10:47;101756.22;;;10.09;99.79
84924;BME280;75286;52.218;5.180;2024-03-22T06:13:12;101752.19;;;10.07;99.65
84924;BME280;75286;52.218;5.180;2024-03-22T06:15:38;101751.22;;;10.08;100.00
84924;BME280;75286;52.218;5.180;2024-03-22T06:18:03;101755.41;;;10.09;100.00
84924;BME280;75286;52.218;5.180;2024-03-22T06:20:28;101752.00;;;10.08;100.00
84924;BME280;75286;52.218;5.180;2024-03-22T06:22:55;101743.47;;;10.08;99.67
84924;BME280;75286;52.218;5.180;2024-03-22T06:25:21;101748.78;;;10.14;100.00
84924;BME280;75286;52.218;5.180;2024-03-22T06:27:46;101753.06;;;10.23;99.70
84924;BME280;75286;52.218;5.180;2024-03-22T06:30:12;101744.16;;;10.18;99.39
84924;BME280;75286;52.218;5.180;2024-03-22T06:32:37;101737.81;;;10.12;99.44
84924;BME280;75286;52.218;5.180;2024-03-22T06:35:03;101731.84;;;10.12;99.36
84924;BME280;75286;52.218;5.180;2024-03-22T06:37:28;101731.84;;;10.12;98.88
84924;BME280;75286;52.218;5.180;2024-03-22T06:39:54;101752.25;;;10.23;99.18
84924;BME280;75286;52.218;5.180;2024-03-22T06:42:19;101761.00;;;10.30;98.89
84924;BME280;75286;52.218;5.180;2024-03-22T06:44:44;101754.84;;;10.31;98.29
84924;BME280;75286;52.218;5.180;2024-03-22T06:47:10;101745.16;;;10.25;97.78
84924;BME280;75286;52.218;5.180;2024-03-22T06:49:35;101734.31;;;10.21;97.79
84924;BME280;75286;52.218;5.180;2024-03-22T06:52:02;101737.38;;;10.17;97.52
84924;BME280;75286;52.218;5.180;2024-03-22T06:54:28;101733.66;;;10.19;97.90
84924;BME280;75286;52.218;5.180;2024-03-22T06:56:53;101736.59;;;10.24;97.46
84924;BME280;75286;52.218;5.180;2024-03-22T06:59:19;101753.06;;;10.31;97.58
84924;BME280;75286;52.218;5.180;2024-03-22T07:01:44;101760.53;;;10.35;97.77
84924;BME280;75286;52.218;5.180;2024-03-22T07:04:09;101761.81;;;10.39;97.72
84924;BME280;75286;52.218;5.180;2024-03-22T07:06:35;101726.06;;;10.26;97.87
84924;BME280;75286;52.218;5.180;2024-03-22T07:09:00;101751.47;;;10.30;97.77
84924;BME280;75286;52.218;5.180;2024-03-22T07:11:26;101733.69;;;10.27;97.98
84924;BME280;75286;52.218;5.180;2024-03-22T07:13:52;101730.13;;;10.28;97.99
84924;BME280;75286;52.218;5.180;2024-03-22T07:16:18;101735.97;;;10.30;97.90
84924;BME280;75286;52.218;5.180;2024-03-22T07:18:44;101753.72;;;10.33;97.60
84924;BME280;75286;52.218;5.180;2024-03-22T07:21:09;101752.63;;;10.36;97.61
84924;BME280;75286;52.218;5.180;2024-03-22T07:23:35;101759.88;;;10.41;97.33
84924;BME280;75286;52.218;5.180;2024-03-22T07:26:00;101758.09;;;10.33;97.88
84924;BME280;75286;52.218;5.180;2024-03-22T07:28:26;101762.16;;;10.36;98.22
84924;BME280;75286;52.218;5.180;2024-03-22T07:30:51;101744.16;;;10.18;98.09
84924;BME280;75286;52.218;5.180;2024-03-22T07:33:16;101749.84;;;10.29;97.88
84924;BME280;75286;52.218;5.180;2024-03-22T07:35:43;101759.72;;;10.34;98.14
84924;BME280;75286;52.218;5.180;2024-03-22T07:38:10;101748.41;;;10.35;97.81
84924;BME280;75286;52.218;5.180;2024-03-22T07:40:35;101755.84;;;10.38;97.95
84924;BME280;75286;52.218;5.180;2024-03-22T07:43:01;101747.75;;;10.33;98.60
84924;BME280;75286;52.218;5.180;2024-03-22T07:45:37;101760.19;;;10.29;99.18
84924;BME280;75286;52.218;5.180;2024-03-22T07:48:05;101736.91;;;10.21;98.90
84924;BME280;75286;52.218;5.180;2024-03-22T07:50:31;101743.69;;;10.22;99.20
84924;BME280;75286;52.218;5.180;2024-03-22T07:52:56;101739.00;;;10.18;99.49
84924;BME280;75286;52.218;5.180;2024-03-22T07:55:22;101742.06;;;10.21;99.54
84924;BME280;75286;52.218;5.180;2024-03-22T07:57:57;101746.75;;;10.26;99.53
84924;BME280;75286;52.218;5.180;2024-03-22T08:00:25;101727.31;;;10.14;99.62
84924;BME280;75286;52.218;5.180;2024-03-22T08:02:51;101732.22;;;10.17;99.70
84924;BME280;75286;52.218;5.180;2024-03-22T08:05:17;101733.97;;;10.16;99.58
84924;BME280;75286;52.218;5.180;2024-03-22T08:07:42;101739.16;;;10.16;100.00
84924;BME280;75286;52.218;5.180;2024-03-22T08:10:13;101757.59;;;10.29;100.00
84924;BME280;75286;52.218;5.180;2024-03-22T08:12:50;101712.91;;;10.03;100.00
84924;BME280;75286;52.218;5.180;2024-03-22T08:15:17;101719.41;;;10.15;100.00
84924;BME280;75286;52.218;5.180;2024-03-22T08:17:45;101745.47;;;10.22;100.00
84924;BME280;75286;52.218;5.180;2024-03-22T08:20:11;101728.13;;;10.14;100.00
84924;BME280;75286;52.218;5.180;2024-03-22T08:22:36;101754.34;;;10.27;100.00
84924;BME280;75286;52.218;5.180;2024-03-22T08:25:02;101716.78;;;9.99;100.00
84924;BME280;75286;52.218;5.180;2024-03-22T08:28:04;101724.38;;;10.09;100.00
84924;BME280;75286;52.218;5.180;2024-03-22T08:30:29;101753.06;;;10.23;100.00
84924;BME280;75286;52.218;5.180;2024-03-22T08:32:55;101755.03;;;10.29;100.00
84924;BME280;75286;52.218;5.180;2024-03-22T08:38:16;101704.72;;;10.08;100.00
84924;BME280;75286;52.218;5.180;2024-03-22T08:40:42;101740.94;;;10.32;100.00
84924;BME280;75286;52.218;5.180;2024-03-22T08:43:29;101631.91;;;9.62;100.00
84924;BME280;75286;52.218;5.180;2024-03-22T08:46:12;101703.09;;;10.07;100.00
84924;BME280;75286;52.218;5.180;2024-03-22T08:48:39;101622.38;;;9.55;100.00
84924;BME280;75286;52.218;5.180;2024-03-22T08:51:08;101649.69;;;9.73;100.00
84924;BME280;75286;52.218;5.180;2024-03-22T08:53:59;101737.75;;;10.30;100.00
84924;BME280;75286;52.218;5.180;2024-03-22T08:59:11;101673.16;;;9.88;100.00
84924;BME280;75286;52.218;5.180;2024-03-22T09:01:39;101738.03;;;10.27;100.00
84924;BME280;75286;52.218;5.180;2024-03-22T09:04:07;101741.59;;;10.26;100.00
84924;BME280;75286;52.218;5.180;2024-03-22T09:06:34;101744.69;;;10.29;100.00
84924;BME280;75286;52.218;5.180;2024-03-22T09:09:00;101720.84;;;10.10;100.00
84924;BME280;75286;52.218;5.180;2024-03-22T09:11:25;101740.78;;;10.25;100.00
84924;BME280;75286;52.218;5.180;2024-03-22T09:13:53;101686.75;;;9.98;100.00
84924;BME280;75286;52.218;5.180;2024-03-22T09:16:23;101722.31;;;10.12;100.00
84924;BME280;75286;52.218;5.180;2024-03-22T09:18:57;101629.66;;;9.59;100.00
84924;BME280;75286;52.218;5.180;2024-03-22T09:21:23;101738.81;;;10.19;100.00
84924;BME280;75286;52.218;5.180;2024-03-22T09:27:16;101743.69;;;10.22;100.00
84924;BME280;75286;52.218;5.180;2024-03-22T09:29:41;101731.41;;;10.16;100.00
84924;BME280;75286;52.218;5.180;2024-03-22T09:32:08;101636.44;;;9.60;100.00
84924;BME280;75286;52.218;5.180;2024-03-22T09:35:09;101663.59;;;9.72;100.00
84924;BME280;75286;52.218;5.180;2024-03-22T09:38:00;101608.94;;;9.43;100.00
84924;BME280;75286;52.218;5.180;2024-03-22T09:40:25;101604.59;;;9.43;100.00
84924;BME280;75286;52.218;5.180;2024-03-22T09:42:52;101632.91;;;9.61;100.00
84924;BME280;75286;52.218;5.180;2024-03-22T09:45:18;101627.41;;;9.64;100.00
84924;BME280;75286;52.218;5.180;2024-03-22T09:51:12;101650.06;;;9.78;100.00
84924;BME280;75286;52.218;5.180;2024-03-22T09:53:39;101686.75;;;9.98;100.00
84924;BME280;75286;52.218;5.180;2024-03-22T09:56:05;101731.91;;;10.28;100.00
84924;BME280;75286;52.218;5.180;2024-03-22T09:58:38;101716.06;;;10.23;100.00
84924;BME280;75286;52.218;5.180;2024-03-22T10:01:04;101625.97;;;9.70;100.00
84924;BME280;75286;52.218;5.180;2024-03-22T10:03:29;101713.97;;;10.26;100.00
84924;BME280;75286;52.218;5.180;2024-03-22T10:05:55;101701.38;;;10.23;100.00
84924;BME280;75286;52.218;5.180;2024-03-22T10:08:20;101721.91;;;10.33;100.00
84924;BME280;75286;52.218;5.180;2024-03-22T10:10:46;101708.31;;;10.31;100.00
84924;BME280;75286;52.218;5.180;2024-03-22T10:13:11;101657.50;;;9.98;100.00
84924;BME280;75286;52.218;5.180;2024-03-22T10:15:37;101704.44;;;10.27;100.00
84924;BME280;75286;52.218;5.180;2024-03-22T10:18:12;101718.69;;;10.39;100.00
84924;BME280;75286;52.218;5.180;2024-03-22T10:20:42;101714.47;;;10.38;100.00
84924;BME280;75286;52.218;5.180;2024-03-22T10:23:12;101698.31;;;10.28;100.00
84924;BME280;75286;52.218;5.180;2024-03-22T10:25:37;101692.31;;;10.27;100.00
84924;BME280;75286;52.218;5.180;2024-03-22T10:28:06;101627.78;;;9.85;100.00
84924;BME280;75286;52.218;5.180;2024-03-22T10:30:40;101658.97;;;10.08;100.00
84924;BME280;75286;52.218;5.180;2024-03-22T10:36:55;101671.13;;;10.16;100.00
84924;BME280;75286;52.218;5.180;2024-03-22T10:39:20;101680.69;;;10.31;100.00
84924;BME280;75286;52.218;5.180;2024-03-22T10:41:48;101670.50;;;10.22;100.00
84924;BME280;75286;52.218;5.180;2024-03-22T10:44:14;101693.31;;;10.35;100.00
84924;BME280;75286;52.218;5.180;2024-03-22T10:46:53;101715.78;;;10.50;100.00
84924;BME280;75286;52.218;5.180;2024-03-22T10:49:37;101609.06;;;9.83;100.00
84924;BME280;75286;52.218;5.180;2024-03-22T10:52:03;101715.63;;;10.52;100.00
84924;BME280;75286;52.218;5.180;2024-03-22T10:54:40;101717.72;;;10.48;100.00
84924;BME280;75286;52.218;5.180;2024-03-22T10:57:07;101704.47;;;10.43;100.00
84924;BME280;75286;52.218;5.180;2024-03-22T10:59:36;101703.00;;;10.49;100.00
84924;BME280;75286;52.218;5.180;2024-03-22T11:02:05;101710.94;;;10.55;100.00
84924;BME280;75286;52.218;5.180;2024-03-22T11:04:32;101711.56;;;10.49;100.00
84924;BME280;75286;52.218;5.180;2024-03-22T11:06:58;101627.03;;;10.01;100.00
84924;BME280;75286;52.218;5.180;2024-03-22T11:09:25;101706.56;;;10.56;100.00
84924;BME280;75286;52.218;5.180;2024-03-22T11:11:55;101691.84;;;10.48;100.00
84924;BME280;75286;52.218;5.180;2024-03-22T11:14:20;101687.34;;;10.50;100.00
84924;BME280;75286;52.218;5.180;2024-03-22T11:16:47;101684.28;;;10.47;100.00
84924;BME280;75286;52.218;5.180;2024-03-22T11:19:12;101694.28;;;10.50;100.00
84924;BME280;75286;52.218;5.180;2024-03-22T11:21:38;101700.91;;;10.60;100.00
84924;BME280;75286;52.218;5.180;2024-03-22T11:24:07;101682.81;;;10.44;100.00
84924;BME280;75286;52.218;5.180;2024-03-22T11:26:35;101684.75;;;10.50;100.00
84924;BME280;75286;52.218;5.180;2024-03-22T11:29:00;101682.81;;;10.52;100.00
84924;BME280;75286;52.218;5.180;2024-03-22T11:31:27;101628.34;;;10.21;100.00
84924;BME280;75286;52.218;5.180;2024-03-22T11:33:56;101691.56;;;10.59;100.00
84924;BME280;75286;52.218;5.180;2024-03-22T11:36:22;101681.06;;;10.53;100.00
84924;BME280;75286;52.218;5.180;2024-03-22T11:42:32;101682.19;;;10.58;100.00
84924;BME280;75286;52.218;5.180;2024-03-22T11:44:59;101679.25;;;10.61;100.00
84924;BME280;75286;52.218;5.180;2024-03-22T11:47:24;101666.50;;;10.52;100.00
84924;BME280;75286;52.218;5.180;2024-03-22T11:49:50;101671.50;;;10.61;100.00
84924;BME280;75286;52.218;5.180;2024-03-22T11:52:15;101678.13;;;10.64;100.00
84924;BME280;75286;52.218;5.180;2024-03-22T11:54:41;101673.47;;;10.59;100.00
84924;BME280;75286;52.218;5.180;2024-03-22T11:57:08;101663.28;;;10.58;100.00
84924;BME280;75286;52.218;5.180;2024-03-22T11:59:40;101667.94;;;10.62;100.00
84924;BME280;75286;52.218;5.180;2024-03-22T12:02:06;101673.44;;;10.67;100.00
84924;BME280;75286;52.218;5.180;2024-03-22T12:04:34;101668.41;;;10.66;100.00
84924;BME280;75286;52.218;5.180;2024-03-22T12:06:59;101670.19;;;10.65;100.00
84924;BME280;75286;52.218;5.180;2024-03-22T12:09:25;101668.25;;;10.67;100.00
84924;BME280;75286;52.218;5.180;2024-03-22T12:11:50;101663.44;;;10.64;100.00
84924;BME280;75286;52.218;5.180;2024-03-22T12:14:19;101659.38;;;10.62;100.00
84924;BME280;75286;52.218;5.180;2024-03-22T12:16:45;101654.69;;;10.57;100.00
84924;BME280;75286;52.218;5.180;2024-03-22T12:19:10;101660.03;;;10.64;100.00
84924;BME280;75286;52.218;5.180;2024-03-22T12:21:36;101656.16;;;10.68;100.00
84924;BME280;75286;52.218;5.180;2024-03-22T12:24:01;101653.72;;;10.74;100.00
84924;BME280;75286;52.218;5.180;2024-03-22T12:26:27;101654.53;;;10.75;100.00
84924;BME280;75286;52.218;5.180;2024-03-22T12:28:52;101657.28;;;10.82;100.00
84924;BME280;75286;52.218;5.180;2024-03-22T12:31:17;101648.19;;;10.78;100.00
84924;BME280;75286;52.218;5.180;2024-03-22T12:33:44;101659.38;;;10.78;100.00
84924;BME280;75286;52.218;5.180;2024-03-22T12:36:09;101656.31;;;10.74;100.00
84924;BME280;75286;52.218;5.180;2024-03-22T12:38:34;101655.50;;;10.74;100.00
84924;BME280;75286;52.218;5.180;2024-03-22T12:41:00;101648.38;;;10.76;100.00
84924;BME280;75286;52.218;5.180;2024-03-22T12:43:25;101647.25;;;10.79;100.00
84924;BME280;75286;52.218;5.180;2024-03-22T12:45:50;101646.13;;;10.81;100.00
84924;BME280;75286;52.218;5.180;2024-03-22T12:48:16;101634.31;;;10.87;100.00
84924;BME280;75286;52.218;5.180;2024-03-22T12:50:42;101628.47;;;10.93;100.00
84924;BME280;75286;52.218;5.180;2024-03-22T12:53:07;101627.81;;;10.91;100.00
84924;BME280;75286;52.218;5.180;2024-03-22T12:55:32;101623.75;;;10.96;100.00
84924;BME280;75286;52.218;5.180;2024-03-22T12:57:58;101612.59;;;10.96;100.00
84924;BME280;75286;52.218;5.180;2024-03-22T13:00:23;101622.78;;;11.05;100.00
84924;BME280;75286;52.218;5.180;2024-03-22T13:02:49;101624.06;;;11.01;100.00